createdAt,value
2023-05-02T00:01:12.214Z,100.00
2023-05-02T00:03:42.378Z,100.00
2023-05-02T00:06:12.358Z,100.00
2023-05-02T00:08:43.122Z,100.00
2023-05-02T00:11:12.539Z,100.00
2023-05-02T00:13:41.896Z,100.00
2023-05-02T00:16:11.438Z,100.00
2023-05-02T00:18:40.834Z,100.00
2023-05-02T00:21:10.424Z,100.00
2023-05-02T00:23:39.729Z,100.00
2023-05-02T00:26:12.941Z,100.00
2023-05-02T00:28:42.361Z,100.00
2023-05-02T00:31:11.861Z,100.00
2023-05-02T00:33:41.426Z,100.00
2023-05-02T00:36:18.380Z,100.00
2023-05-02T00:38:48.066Z,100.00
2023-05-02T00:41:19.577Z,100.00
2023-05-02T00:43:48.880Z,100.00
2023-05-02T00:49:50.398Z,100.00
2023-05-02T00:52:21.007Z,100.00
2023-05-02T00:54:50.580Z,100.00
2023-05-02T00:57:19.965Z,100.00
2023-05-02T00:59:49.463Z,100.00
2023-05-02T01:02:35.980Z,100.00
2023-05-02T01:05:18.200Z,100.00
2023-05-02T01:08:05.392Z,100.00
2023-05-02T01:10:51.228Z,100.00
2023-05-02T01:13:24.524Z,100.00
2023-05-02T01:15:55.829Z,100.00
2023-05-02T01:18:29.846Z,100.00
2023-05-02T01:21:05.305Z,100.00
2023-05-02T01:23:48.678Z,100.00
2023-05-02T01:26:26.361Z,100.00
2023-05-02T01:29:02.559Z,100.00
2023-05-02T01:31:37.722Z,100.00
2023-05-02T01:34:11.640Z,100.00
2023-05-02T01:36:46.920Z,100.00
2023-05-02T01:39:22.262Z,100.00
2023-05-02T01:41:55.049Z,100.00
2023-05-02T01:44:27.051Z,100.00
2023-05-02T01:46:59.195Z,100.00
2023-05-02T01:49:29.956Z,100.00
2023-05-02T01:52:04.058Z,100.00
2023-05-02T01:54:37.360Z,100.00
2023-05-02T01:57:10.437Z,100.00
2023-05-02T01:59:44.646Z,100.00
2023-05-02T02:02:16.864Z,100.00
2023-05-02T02:04:49.148Z,100.00
2023-05-02T02:07:18.545Z,100.00
2023-05-02T02:09:47.831Z,100.00
2023-05-02T02:12:29.600Z,100.00
2023-05-02T02:15:11.681Z,100.00
2023-05-02T02:17:45.760Z,100.00
2023-05-02T02:20:17.654Z,100.00
2023-05-02T02:22:48.435Z,100.00
2023-05-02T02:25:19.448Z,100.00
2023-05-02T02:27:50.384Z,100.00
2023-05-02T02:30:21.232Z,100.00
2023-05-02T02:32:50.827Z,100.00
2023-05-02T02:35:20.383Z,100.00
2023-05-02T02:37:56.983Z,100.00
2023-05-02T02:40:33.318Z,100.00
2023-05-02T02:43:13.056Z,100.00
2023-05-02T02:45:56.733Z,100.00
2023-05-02T02:48:37.721Z,100.00
2023-05-02T02:51:16.220Z,100.00
2023-05-02T02:54:05.939Z,100.00
2023-05-02T02:56:44.273Z,100.00
2023-05-02T02:59:22.337Z,100.00
2023-05-02T03:02:03.980Z,100.00
2023-05-02T03:04:35.847Z,100.00
2023-05-02T03:07:05.438Z,100.00
2023-05-02T03:09:44.141Z,100.00
2023-05-02T03:12:13.758Z,100.00
2023-05-02T03:14:43.829Z,100.00
2023-05-02T03:17:14.756Z,100.00
2023-05-02T03:19:44.182Z,100.00
2023-05-02T03:22:13.528Z,100.00
2023-05-02T03:24:42.924Z,100.00
2023-05-02T03:27:12.483Z,100.00
2023-05-02T03:29:41.835Z,100.00
2023-05-02T03:32:11.533Z,100.00
2023-05-02T03:34:43.198Z,100.00
2023-05-02T03:37:12.742Z,100.00
2023-05-02T03:39:42.281Z,100.00
2023-05-02T03:42:11.690Z,100.00
2023-05-02T03:44:41.038Z,100.00
2023-05-02T03:47:10.564Z,100.00
2023-05-02T03:50:50.288Z,100.00
2023-05-02T03:53:19.828Z,100.00
2023-05-02T03:55:49.298Z,100.00
2023-05-02T03:58:18.766Z,100.00
2023-05-02T04:00:48.056Z,100.00
2023-05-02T04:03:17.621Z,100.00
2023-05-02T04:05:48.610Z,100.00
2023-05-02T04:08:18.159Z,100.00
2023-05-02T04:10:47.538Z,100.00
2023-05-02T04:13:17.179Z,100.00
2023-05-02T04:15:47.984Z,100.00
2023-05-02T04:18:17.489Z,100.00
2023-05-02T04:20:48.436Z,100.00
2023-05-02T04:23:17.962Z,100.00
2023-05-02T04:25:54.876Z,100.00
2023-05-02T04:28:25.023Z,100.00
2023-05-02T04:30:54.886Z,100.00
2023-05-02T04:33:24.317Z,100.00
2023-05-02T04:35:55.110Z,100.00
2023-05-02T04:38:24.634Z,100.00
2023-05-02T04:40:54.370Z,100.00
2023-05-02T04:43:24.868Z,99.67
2023-05-02T04:45:54.405Z,99.70
2023-05-02T04:48:23.891Z,98.43
2023-05-02T04:50:54.968Z,95.52
2023-05-02T04:53:24.922Z,92.93
2023-05-02T04:55:54.338Z,87.80
2023-05-02T04:58:23.775Z,84.40
2023-05-02T05:00:53.111Z,86.53
2023-05-02T05:03:22.607Z,86.86
2023-05-02T05:05:53.499Z,85.58
2023-05-02T05:08:22.916Z,85.38
2023-05-02T05:10:53.000Z,80.21
2023-05-02T05:13:22.298Z,75.98
2023-05-02T05:15:51.784Z,76.48
2023-05-02T05:18:21.416Z,72.68
2023-05-02T05:20:50.848Z,73.04
2023-05-02T05:23:21.753Z,66.42
2023-05-02T05:25:51.578Z,67.73
2023-05-02T05:28:21.021Z,68.48
2023-05-02T05:30:50.300Z,66.98
2023-05-02T05:33:19.991Z,67.55
2023-05-02T05:35:49.578Z,65.17
2023-05-02T05:38:20.385Z,63.08
2023-05-02T05:40:52.297Z,62.40
2023-05-02T05:43:21.698Z,60.75
2023-05-02T05:45:53.124Z,62.65
2023-05-02T05:48:22.699Z,59.21
2023-05-02T05:50:52.918Z,56.98
2023-05-02T05:53:23.958Z,56.87
2023-05-02T05:55:53.296Z,58.31
2023-05-02T05:58:22.921Z,58.84
2023-05-02T06:00:52.426Z,59.12
2023-05-02T06:03:22.476Z,60.31
2023-05-02T06:05:52.001Z,55.60
2023-05-02T06:08:23.009Z,55.44
2023-05-02T06:10:52.501Z,57.67
2023-05-02T06:13:21.969Z,54.25
2023-05-02T06:15:51.551Z,55.21
2023-05-02T06:18:20.943Z,53.78
2023-05-02T06:20:50.479Z,54.27
2023-05-02T06:23:20.304Z,55.01
2023-05-02T06:25:51.562Z,52.81
2023-05-02T06:28:21.082Z,53.92
2023-05-02T06:30:59.545Z,54.74
2023-05-02T06:36:12.631Z,48.70
2023-05-02T06:38:41.978Z,50.96
2023-05-02T06:41:18.370Z,48.68
2023-05-02T06:43:47.952Z,46.50
2023-05-02T06:46:17.710Z,48.45
2023-05-02T06:50:49.731Z,48.03
2023-05-02T06:53:19.226Z,48.27
2023-05-02T06:55:49.432Z,49.12
2023-05-02T06:58:18.801Z,48.50
2023-05-02T07:00:51.135Z,47.38
2023-05-02T07:03:20.696Z,46.98
2023-05-02T07:05:51.822Z,47.22
2023-05-02T07:08:22.757Z,47.64
2023-05-02T07:10:53.056Z,44.06
2023-05-02T07:13:22.553Z,44.42
2023-05-02T07:15:51.886Z,44.89
2023-05-02T07:18:21.469Z,46.39
2023-05-02T07:20:52.591Z,45.24
2023-05-02T07:23:22.296Z,47.83
2023-05-02T07:25:51.707Z,47.10
2023-05-02T07:28:21.122Z,46.92
2023-05-02T07:30:50.856Z,48.30
2023-05-02T07:33:20.228Z,47.55
2023-05-02T07:35:51.281Z,47.87
2023-05-02T07:38:20.942Z,48.35
2023-05-02T07:40:50.488Z,47.63
2023-05-02T07:43:19.798Z,45.57
2023-05-02T07:45:49.277Z,46.37
2023-05-02T07:48:18.985Z,42.58
2023-05-02T07:50:48.521Z,46.52
2023-05-02T07:53:19.363Z,44.65
2023-05-02T07:55:49.508Z,45.82
2023-05-02T07:58:18.828Z,44.42
2023-05-02T08:00:48.405Z,46.14
2023-05-02T08:03:18.214Z,45.34
2023-05-02T08:05:47.763Z,46.12
2023-05-02T08:08:18.684Z,47.51
2023-05-02T08:10:48.193Z,48.22
2023-05-02T08:13:17.623Z,46.88
2023-05-02T08:15:47.356Z,47.61
2023-05-02T08:18:17.228Z,44.26
2023-05-02T08:20:46.526Z,47.50
2023-05-02T08:23:17.343Z,46.68
2023-05-02T08:25:47.065Z,47.85
2023-05-02T08:28:16.304Z,47.46
2023-05-02T08:30:46.574Z,45.82
2023-05-02T08:33:16.321Z,47.63
2023-05-02T08:35:45.752Z,44.20
2023-05-02T08:38:15.232Z,46.27
2023-05-02T08:40:46.290Z,45.30
2023-05-02T08:43:16.226Z,44.90
2023-05-02T08:45:47.408Z,47.56
2023-05-02T08:48:17.522Z,45.66
2023-05-02T08:50:48.648Z,43.98
2023-05-02T08:53:19.983Z,47.84
2023-05-02T08:55:52.071Z,42.86
2023-05-02T08:58:21.507Z,43.93
2023-05-02T09:00:52.593Z,44.70
2023-05-02T09:03:31.020Z,42.92
2023-05-02T09:06:08.472Z,44.49
2023-05-02T09:08:39.387Z,44.71
2023-05-02T09:11:12.613Z,44.07
2023-05-02T09:13:44.322Z,43.50
2023-05-02T09:16:16.119Z,45.04
2023-05-02T09:18:50.287Z,45.48
2023-05-02T09:21:22.565Z,45.74
2023-05-02T09:23:54.127Z,45.16
2023-05-02T09:26:29.496Z,46.38
2023-05-02T09:29:02.624Z,46.11
2023-05-02T09:31:54.867Z,44.05
2023-05-02T09:34:25.626Z,41.68
2023-05-02T09:36:55.302Z,45.05
2023-05-02T09:39:26.573Z,44.86
2023-05-02T09:41:58.142Z,43.28
2023-05-02T09:44:37.973Z,42.09
2023-05-02T09:47:07.514Z,42.08
2023-05-02T09:50:49.538Z,41.47
2023-05-02T09:53:19.141Z,41.86
2023-05-02T09:55:48.615Z,39.40
2023-05-02T09:58:23.924Z,41.37
2023-05-02T10:00:53.625Z,43.43
2023-05-02T10:03:26.091Z,44.83
2023-05-02T10:05:57.897Z,44.48
2023-05-02T10:08:29.568Z,42.15
2023-05-02T10:11:01.010Z,43.23
2023-05-02T10:13:32.584Z,42.80
2023-05-02T10:16:04.989Z,43.11
2023-05-02T10:18:40.782Z,43.36
2023-05-02T10:21:14.628Z,40.44
2023-05-02T10:23:45.226Z,42.15
2023-05-02T10:26:21.584Z,42.48
2023-05-02T10:28:51.657Z,42.83
2023-05-02T10:31:27.603Z,41.06
2023-05-02T10:34:00.227Z,42.49
2023-05-02T10:36:33.730Z,41.63
2023-05-02T10:39:04.879Z,40.94
2023-05-02T10:41:37.073Z,41.45
2023-05-02T10:44:09.091Z,39.50
2023-05-02T10:46:40.850Z,41.80
2023-05-02T10:49:12.173Z,39.59
2023-05-02T10:51:45.498Z,40.65
2023-05-02T10:54:25.368Z,43.42
2023-05-02T10:57:11.420Z,40.01
2023-05-02T10:59:42.780Z,41.59
2023-05-02T11:02:48.716Z,42.17
2023-05-02T11:05:18.408Z,41.60
2023-05-02T11:07:49.243Z,42.93
2023-05-02T11:10:29.621Z,41.78
2023-05-02T11:13:01.436Z,41.84
2023-05-02T11:15:58.651Z,40.51
2023-05-02T11:18:28.099Z,42.54
2023-05-02T11:21:32.055Z,42.71
2023-05-02T11:24:40.263Z,41.91
2023-05-02T11:27:43.700Z,41.98
2023-05-02T11:30:14.227Z,40.17
2023-05-02T11:33:20.379Z,41.99
2023-05-02T11:35:51.378Z,41.33
2023-05-02T11:38:23.271Z,40.02
2023-05-02T11:41:00.279Z,43.34
2023-05-02T11:43:32.359Z,41.46
2023-05-02T11:46:04.486Z,40.99
2023-05-02T11:48:34.464Z,41.20
2023-05-02T11:51:05.722Z,43.22
2023-05-02T11:53:36.567Z,42.38
2023-05-02T11:56:09.248Z,41.68
2023-05-02T11:58:38.643Z,42.62
2023-05-02T12:01:15.576Z,42.22
2023-05-02T12:03:45.983Z,41.91
2023-05-02T12:06:19.481Z,41.56
2023-05-02T12:08:49.971Z,41.17
2023-05-02T12:11:21.433Z,41.50
2023-05-02T12:13:52.004Z,39.22
2023-05-02T12:16:22.529Z,39.51
2023-05-02T12:18:52.393Z,42.74
2023-05-02T12:21:22.078Z,40.30
2023-05-02T12:23:51.768Z,41.21
2023-05-02T12:26:25.754Z,41.14
2023-05-02T12:28:57.350Z,40.73
2023-05-02T12:31:28.281Z,40.71
2023-05-02T12:34:00.427Z,42.47
2023-05-02T12:36:30.283Z,42.67
2023-05-02T12:39:01.781Z,42.69
2023-05-02T12:41:37.406Z,43.59
2023-05-02T12:44:09.291Z,43.82
2023-05-02T12:46:38.741Z,43.45
2023-05-02T12:50:49.853Z,42.78
2023-05-02T12:53:19.182Z,43.90
2023-05-02T12:55:49.121Z,42.12
2023-05-02T12:58:18.489Z,43.70
2023-05-02T13:00:48.117Z,42.55
2023-05-02T13:03:17.656Z,44.18
2023-05-02T13:05:48.451Z,43.42
2023-05-02T13:08:17.826Z,41.87
2023-05-02T13:10:47.248Z,43.04
2023-05-02T13:13:16.801Z,42.09
2023-05-02T13:15:47.882Z,43.71
2023-05-02T13:18:17.204Z,44.39
2023-05-02T13:20:48.057Z,42.87
2023-05-02T13:23:18.091Z,43.85
2023-05-02T13:25:47.449Z,42.33
2023-05-02T13:28:16.995Z,44.10
2023-05-02T13:30:46.300Z,41.80
2023-05-02T13:33:15.840Z,41.77
2023-05-02T13:35:45.219Z,42.64
2023-05-02T13:38:16.020Z,43.40
2023-05-02T13:40:45.399Z,43.39
2023-05-02T13:43:14.840Z,44.92
2023-05-02T13:45:44.355Z,44.16
2023-05-02T13:48:13.756Z,43.41
2023-05-02T13:50:43.257Z,43.60
2023-05-02T13:53:12.783Z,42.59
2023-05-02T13:55:44.941Z,42.87
2023-05-02T13:58:14.309Z,43.59
2023-05-02T14:00:43.777Z,43.96
2023-05-02T14:03:13.835Z,45.09
2023-05-02T14:05:44.030Z,43.83
2023-05-02T14:08:18.582Z,43.60
2023-05-02T14:10:49.567Z,44.61
2023-05-02T14:13:19.030Z,45.06
2023-05-02T14:15:48.500Z,43.96
2023-05-02T14:18:18.171Z,43.11
2023-05-02T14:20:47.626Z,42.94
2023-05-02T14:23:17.150Z,41.31
2023-05-02T14:25:47.980Z,41.76
2023-05-02T14:28:17.780Z,41.45
2023-05-02T14:30:47.155Z,42.38
2023-05-02T14:33:16.509Z,41.28
2023-05-02T14:35:46.127Z,42.16
2023-05-02T14:38:15.467Z,42.23
2023-05-02T14:40:44.915Z,41.98
2023-05-02T14:43:16.235Z,43.39
2023-05-02T14:45:45.620Z,43.47
2023-05-02T14:48:17.101Z,41.85
2023-05-02T14:50:46.661Z,42.56
2023-05-02T14:53:16.460Z,43.30
2023-05-02T14:55:46.484Z,42.58
2023-05-02T14:58:20.843Z,44.08
2023-05-02T15:00:50.827Z,44.28
2023-05-02T15:03:20.438Z,43.15
2023-05-02T15:05:50.153Z,42.96
2023-05-02T15:08:19.797Z,43.50
2023-05-02T15:10:49.239Z,44.08
2023-05-02T15:13:20.046Z,44.18
2023-05-02T15:15:50.220Z,43.67
2023-05-02T15:18:19.730Z,44.99
2023-05-02T15:20:49.148Z,44.58
2023-05-02T15:23:18.704Z,44.06
2023-05-02T15:25:48.224Z,44.54
2023-05-02T15:28:19.125Z,44.95
2023-05-02T15:30:49.283Z,45.12
2023-05-02T15:33:18.767Z,45.26
2023-05-02T15:35:56.810Z,45.80
2023-05-02T15:38:26.707Z,46.16
2023-05-02T15:40:57.368Z,46.76
2023-05-02T15:43:29.414Z,46.59
2023-05-02T15:46:01.925Z,47.69
2023-05-02T15:50:49.898Z,47.74
2023-05-02T15:53:19.883Z,47.37
2023-05-02T15:55:49.591Z,47.76
2023-05-02T15:58:19.422Z,48.35
2023-05-02T16:00:49.006Z,48.37
2023-05-02T16:03:18.310Z,48.71
2023-05-02T16:05:49.225Z,49.10
2023-05-02T16:08:18.587Z,48.96
2023-05-02T16:10:48.460Z,48.96
2023-05-02T16:13:17.886Z,49.06
2023-05-02T16:15:48.386Z,48.71
2023-05-02T16:18:18.049Z,48.70
2023-05-02T16:20:50.263Z,49.07
2023-05-02T16:23:19.598Z,48.92
2023-05-02T16:25:48.985Z,49.21
2023-05-02T16:28:18.334Z,49.59
2023-05-02T16:30:47.686Z,48.89
2023-05-02T16:33:16.975Z,49.53
2023-05-02T16:35:47.977Z,49.85
2023-05-02T16:38:17.325Z,50.23
2023-05-02T16:40:47.111Z,50.17
2023-05-02T16:43:17.226Z,50.67
2023-05-02T16:45:47.436Z,50.97
2023-05-02T16:48:16.836Z,51.21
2023-05-02T16:50:47.743Z,51.06
2023-05-02T16:53:17.112Z,51.66
2023-05-02T16:55:46.630Z,51.62
2023-05-02T16:58:16.004Z,51.88
2023-05-02T17:00:45.666Z,52.38
2023-05-02T17:03:15.388Z,52.77
2023-05-02T17:05:44.833Z,53.32
2023-05-02T17:08:17.121Z,54.09
2023-05-02T17:10:51.664Z,54.91
2023-05-02T17:13:21.183Z,55.32
2023-05-02T17:15:51.421Z,56.17
2023-05-02T17:18:22.116Z,56.15
2023-05-02T17:20:51.783Z,56.87
2023-05-02T17:23:22.968Z,56.83
2023-05-02T17:25:53.301Z,57.45
2023-05-02T17:28:22.734Z,58.09
2023-05-02T17:30:54.788Z,58.16
2023-05-02T17:33:25.580Z,58.31
2023-05-02T17:35:56.320Z,58.44
2023-05-02T17:38:27.484Z,58.59
2023-05-02T17:40:56.964Z,58.70
2023-05-02T17:43:26.379Z,59.00
2023-05-02T17:45:55.850Z,58.58
2023-05-02T17:48:25.335Z,58.70
2023-05-02T17:50:56.249Z,58.04
2023-05-02T17:53:27.383Z,57.44
2023-05-02T17:55:56.880Z,57.73
2023-05-02T17:58:27.969Z,57.58
2023-05-02T18:00:57.298Z,57.24
2023-05-02T18:03:27.211Z,57.42
2023-05-02T18:05:56.824Z,56.85
2023-05-02T18:08:27.849Z,56.56
2023-05-02T18:10:57.245Z,56.64
2023-05-02T18:13:26.721Z,56.93
2023-05-02T18:16:01.643Z,56.79
2023-05-02T18:18:31.154Z,56.49
2023-05-02T18:21:00.907Z,56.68
2023-05-02T18:23:31.768Z,56.61
2023-05-02T18:26:01.364Z,56.20
2023-05-02T18:28:30.917Z,56.21
2023-05-02T18:31:00.383Z,56.26
2023-05-02T18:33:29.801Z,56.16
2023-05-02T18:35:59.304Z,56.05
2023-05-02T18:38:28.586Z,55.99
2023-05-02T18:40:59.547Z,56.06
2023-05-02T18:43:28.888Z,55.83
2023-05-02T18:45:58.349Z,56.04
2023-05-02T18:50:49.138Z,56.46
2023-05-02T18:53:19.642Z,56.42
2023-05-02T18:55:49.325Z,56.13
2023-05-02T18:58:18.764Z,56.45
2023-05-02T19:00:48.001Z,56.46
2023-05-02T19:03:17.567Z,56.96
2023-05-02T19:05:50.357Z,56.50
2023-05-02T19:08:19.499Z,56.25
2023-05-02T19:10:48.826Z,55.31
2023-05-02T19:13:19.528Z,54.76
2023-05-02T19:15:48.854Z,54.72
2023-05-02T19:18:18.241Z,54.44
2023-05-02T19:20:48.954Z,54.36
2023-05-02T19:23:20.693Z,54.18
2023-05-02T19:25:50.408Z,53.99
2023-05-02T19:28:19.941Z,54.02
2023-05-02T19:30:49.238Z,54.34
2023-05-02T19:33:18.583Z,53.91
2023-05-02T19:35:49.306Z,54.19
2023-05-02T19:38:18.664Z,53.96
2023-05-02T19:40:48.099Z,53.14
2023-05-02T19:43:17.430Z,53.81
2023-05-02T19:45:46.795Z,52.82
2023-05-02T19:48:16.556Z,52.39
2023-05-02T19:50:47.410Z,52.92
2023-05-02T19:53:16.712Z,52.48
2023-05-02T19:55:46.174Z,51.23
2023-05-02T19:58:15.517Z,51.20
2023-05-02T20:00:46.352Z,50.25
2023-05-02T20:03:15.842Z,50.56
2023-05-02T20:05:45.473Z,50.86
2023-05-02T20:08:16.492Z,50.31
2023-05-02T20:10:46.048Z,50.41
2023-05-02T20:13:15.486Z,50.99
2023-05-02T20:15:44.809Z,51.21
2023-05-02T20:18:14.188Z,52.12
2023-05-02T20:20:43.515Z,52.11
2023-05-02T20:23:12.785Z,52.80
2023-05-02T20:25:43.972Z,53.24
2023-05-02T20:28:13.647Z,53.70
2023-05-02T20:30:44.269Z,53.81
2023-05-02T20:33:16.068Z,54.24
2023-05-02T20:35:46.337Z,54.40
2023-05-02T20:38:17.966Z,54.66
2023-05-02T20:40:48.782Z,55.03
2023-05-02T20:43:19.069Z,54.77
2023-05-02T20:45:49.409Z,55.10
2023-05-02T20:48:19.440Z,54.69
2023-05-02T20:50:57.908Z,54.25
2023-05-02T20:53:27.216Z,53.59
2023-05-02T20:55:58.081Z,53.52
2023-05-02T20:58:27.610Z,53.68
2023-05-02T21:00:57.003Z,53.95
2023-05-02T21:03:26.676Z,54.25
2023-05-02T21:05:59.403Z,54.26
2023-05-02T21:08:28.868Z,54.42
2023-05-02T21:10:59.711Z,54.94
2023-05-02T21:13:29.063Z,55.19
2023-05-02T21:15:58.554Z,54.95
2023-05-02T21:18:27.993Z,55.73
2023-05-02T21:20:57.462Z,56.04
2023-05-02T21:23:27.037Z,57.40
2023-05-02T21:25:56.495Z,59.09
2023-05-02T21:28:27.742Z,60.02
2023-05-02T21:30:57.203Z,60.76
2023-05-02T21:33:26.703Z,60.89
2023-05-02T21:35:59.882Z,61.72
2023-05-02T21:38:29.700Z,62.15
2023-05-02T21:41:03.386Z,62.05
2023-05-02T21:43:39.180Z,62.59
2023-05-02T21:46:08.840Z,63.04
2023-05-02T21:50:49.080Z,63.31
2023-05-02T21:53:18.410Z,64.40
2023-05-02T21:55:47.711Z,65.13
2023-05-02T21:58:17.105Z,64.80
2023-05-02T22:00:46.622Z,64.23
2023-05-02T22:03:17.091Z,62.88
2023-05-02T22:05:50.496Z,62.00
2023-05-02T22:08:20.659Z,60.90
2023-05-02T22:10:50.121Z,60.27
2023-05-02T22:13:19.781Z,59.62
2023-05-02T22:15:50.997Z,58.92
2023-05-02T22:18:20.562Z,58.31
2023-05-02T22:20:51.571Z,58.13
2023-05-02T22:23:20.943Z,57.68
2023-05-02T22:25:50.400Z,57.29
2023-05-02T22:28:19.679Z,57.15
2023-05-02T22:30:49.044Z,56.92
2023-05-02T22:33:18.346Z,57.42
2023-05-02T22:35:49.356Z,57.19
2023-05-02T22:38:18.766Z,56.53
2023-05-02T22:40:48.145Z,56.45
2023-05-02T22:43:17.849Z,55.37
2023-05-02T22:45:47.468Z,54.73
2023-05-02T22:48:16.825Z,54.68
2023-05-02T22:50:50.179Z,53.80
2023-05-02T22:53:21.797Z,53.95
2023-05-02T22:55:51.944Z,53.46
2023-05-02T22:58:21.342Z,53.89
2023-05-02T23:00:50.782Z,53.99
2023-05-02T23:03:20.248Z,53.93
2023-05-02T23:05:51.315Z,53.47
2023-05-02T23:08:21.102Z,54.01
2023-05-02T23:10:50.642Z,53.82
2023-05-02T23:13:20.102Z,53.66
2023-05-02T23:15:55.156Z,53.84
2023-05-02T23:18:24.733Z,53.85
2023-05-02T23:20:55.675Z,53.87
2023-05-02T23:23:25.100Z,53.29
2023-05-02T23:25:54.578Z,53.34
2023-05-02T23:28:24.086Z,53.09
2023-05-02T23:30:53.903Z,53.12
2023-05-02T23:33:23.371Z,53.12
2023-05-02T23:35:54.829Z,53.30
2023-05-02T23:38:24.482Z,53.26
2023-05-02T23:40:54.604Z,53.34
2023-05-02T23:43:24.563Z,53.61
2023-05-02T23:45:53.903Z,53.40
2023-05-02T23:48:23.507Z,53.70
2023-05-02T23:50:54.358Z,53.67
2023-05-02T23:53:23.871Z,53.79
2023-05-02T23:55:53.319Z,54.09
2023-05-02T23:58:22.808Z,53.70
